Terminal Aerodrome Forecast
Issued by NWS

Home | Current Version | Previous Version | Text Only | Print | Product List | Glossary Off
Versions: 1 2 3 4 5 6 7 8 9 10 11 12 13 14 15 16 17 18 19 20 21 22 23 24 25 26 27 28 29 30 31 32 33 34 35 36 37 38 39 40 41 42 43

000
FTUS43 KGRB 261700
TAFRHI
TAF
KRHI 261721Z 2618/2718 32013G19KT P6SM OVC030
     FM262200 34008KT P6SM BKN035
     FM270200 35005KT P6SM BKN035
     FM270600 36004KT P6SM SCT030
     FM271500 35006KT P6SM FEW030=

USA.gov is the U.S. government's official web portal to all federal, state and local government web resources and services.